sensor_id;sensor_type;location;lat;lon;timestamp;P1;durP1;ratioP1;P2;durP2;ratioP2
74789;SDS011;63318;52.406;13.416;2023-04-16T00:00:06;16.60;;;10.20;;
74789;SDS011;63318;52.406;13.416;2023-04-16T00:02:36;14.10;;;10.10;;
74789;SDS011;63318;52.406;13.416;2023-04-16T00:05:04;14.20;;;9.20;;
74789;SDS011;63318;52.406;13.416;2023-04-16T00:07:34;16.70;;;11.00;;
74789;SDS011;63318;52.406;13.416;2023-04-16T00:10:02;14.50;;;10.40;;
74789;SDS011;63318;52.406;13.416;2023-04-16T00:12:33;14.70;;;10.30;;
74789;SDS011;63318;52.406;13.416;2023-04-16T00:15:01;16.90;;;11.50;;
74789;SDS011;63318;52.406;13.416;2023-04-16T00:17:32;16.20;;;10.90;;
74789;SDS011;63318;52.406;13.416;2023-04-16T00:20:00;16.50;;;10.60;;
74789;SDS011;63318;52.406;13.416;2023-04-16T00:22:29;17.10;;;11.30;;
74789;SDS011;63318;52.406;13.416;2023-04-16T00:24:58;16.70;;;10.10;;
74789;SDS011;63318;52.406;13.416;2023-04-16T00:27:26;14.30;;;10.20;;
74789;SDS011;63318;52.406;13.416;2023-04-16T00:29:55;14.90;;;10.10;;
74789;SDS011;63318;52.406;13.416;2023-04-16T00:32:23;18.30;;;11.20;;
74789;SDS011;63318;52.406;13.416;2023-04-16T00:34:51;16.00;;;11.30;;
74789;SDS011;63318;52.406;13.416;2023-04-16T00:37:20;16.20;;;10.80;;
74789;SDS011;63318;52.406;13.416;2023-04-16T00:39:49;14.60;;;10.40;;
74789;SDS011;63318;52.406;13.416;2023-04-16T00:42:18;14.90;;;10.00;;
74789;SDS011;63318;52.406;13.416;2023-04-16T00:44:47;16.50;;;10.80;;
74789;SDS011;63318;52.406;13.416;2023-04-16T00:47:15;14.60;;;10.40;;
74789;SDS011;63318;52.406;13.416;2023-04-16T00:49:45;14.80;;;9.80;;
74789;SDS011;63318;52.406;13.416;2023-04-16T00:52:14;15.50;;;10.70;;
74789;SDS011;63318;52.406;13.416;2023-04-16T00:54:42;17.30;;;10.50;;
74789;SDS011;63318;52.406;13.416;2023-04-16T00:57:11;15.30;;;10.60;;
74789;SDS011;63318;52.406;13.416;2023-04-16T00:59:40;16.20;;;11.40;;
74789;SDS011;63318;52.406;13.416;2023-04-16T01:02:09;15.60;;;10.30;;
74789;SDS011;63318;52.406;13.416;2023-04-16T01:04:37;15.50;;;10.20;;
74789;SDS011;63318;52.406;13.416;2023-04-16T01:07:07;15.00;;;10.40;;
74789;SDS011;63318;52.406;13.416;2023-04-16T01:09:36;18.40;;;10.40;;
74789;SDS011;63318;52.406;13.416;2023-04-16T01:12:04;16.50;;;11.40;;
74789;SDS011;63318;52.406;13.416;2023-04-16T01:14:32;17.10;;;11.80;;
74789;SDS011;63318;52.406;13.416;2023-04-16T01:17:01;15.90;;;11.80;;
74789;SDS011;63318;52.406;13.416;2023-04-16T01:19:30;16.00;;;10.80;;
74789;SDS011;63318;52.406;13.416;2023-04-16T01:21:59;15.80;;;10.60;;
74789;SDS011;63318;52.406;13.416;2023-04-16T01:24:28;17.10;;;12.10;;
74789;SDS011;63318;52.406;13.416;2023-04-16T01:26:58;15.80;;;11.00;;
74789;SDS011;63318;52.406;13.416;2023-04-16T01:29:26;15.60;;;10.20;;
74789;SDS011;63318;52.406;13.416;2023-04-16T01:31:55;17.60;;;11.00;;
74789;SDS011;63318;52.406;13.416;2023-04-16T01:34:24;18.10;;;11.00;;
74789;SDS011;63318;52.406;13.416;2023-04-16T01:36:52;18.20;;;11.50;;
74789;SDS011;63318;52.406;13.416;2023-04-16T01:39:22;19.10;;;12.10;;
74789;SDS011;63318;52.406;13.416;2023-04-16T01:41:51;16.80;;;11.10;;
74789;SDS011;63318;52.406;13.416;2023-04-16T01:44:20;16.50;;;11.30;;
74789;SDS011;63318;52.406;13.416;2023-04-16T01:46:48;18.00;;;11.30;;
74789;SDS011;63318;52.406;13.416;2023-04-16T01:49:17;17.10;;;11.90;;
74789;SDS011;63318;52.406;13.416;2023-04-16T01:51:46;18.90;;;11.20;;
74789;SDS011;63318;52.406;13.416;2023-04-16T01:54:15;16.20;;;11.30;;
74789;SDS011;63318;52.406;13.416;2023-04-16T01:56:43;16.90;;;11.80;;
74789;SDS011;63318;52.406;13.416;2023-04-16T01:59:11;18.00;;;12.10;;
74789;SDS011;63318;52.406;13.416;2023-04-16T02:01:40;18.30;;;11.90;;
74789;SDS011;63318;52.406;13.416;2023-04-16T02:04:09;19.00;;;12.30;;
74789;SDS011;63318;52.406;13.416;2023-04-16T02:06:39;18.20;;;11.60;;
74789;SDS011;63318;52.406;13.416;2023-04-16T02:09:07;18.50;;;12.10;;
74789;SDS011;63318;52.406;13.416;2023-04-16T02:11:36;16.70;;;12.20;;
74789;SDS011;63318;52.406;13.416;2023-04-16T02:14:04;18.20;;;11.90;;
74789;SDS011;63318;52.406;13.416;2023-04-16T02:16:35;17.30;;;12.20;;
74789;SDS011;63318;52.406;13.416;2023-04-16T02:19:05;19.60;;;13.40;;
74789;SDS011;63318;52.406;13.416;2023-04-16T02:21:33;21.30;;;13.10;;
74789;SDS011;63318;52.406;13.416;2023-04-16T02:24:01;18.80;;;12.20;;
74789;SDS011;63318;52.406;13.416;2023-04-16T02:26:30;18.90;;;13.20;;
74789;SDS011;63318;52.406;13.416;2023-04-16T02:28:59;20.90;;;13.10;;
74789;SDS011;63318;52.406;13.416;2023-04-16T02:31:28;20.70;;;13.20;;
74789;SDS011;63318;52.406;13.416;2023-04-16T02:33:57;21.30;;;14.50;;
74789;SDS011;63318;52.406;13.416;2023-04-16T02:36:25;19.40;;;13.50;;
74789;SDS011;63318;52.406;13.416;2023-04-16T02:38:54;21.50;;;13.70;;
74789;SDS011;63318;52.406;13.416;2023-04-16T02:41:22;20.80;;;12.50;;
74789;SDS011;63318;52.406;13.416;2023-04-16T02:43:51;20.20;;;13.30;;
74789;SDS011;63318;52.406;13.416;2023-04-16T02:46:20;23.20;;;13.70;;
74789;SDS011;63318;52.406;13.416;2023-04-16T02:48:49;19.60;;;12.70;;
74789;SDS011;63318;52.406;13.416;2023-04-16T02:51:17;21.40;;;14.10;;
74789;SDS011;63318;52.406;13.416;2023-04-16T02:53:45;20.40;;;13.20;;
74789;SDS011;63318;52.406;13.416;2023-04-16T02:56:14;21.10;;;13.00;;
74789;SDS011;63318;52.406;13.416;2023-04-16T02:58:42;18.80;;;12.80;;
74789;SDS011;63318;52.406;13.416;2023-04-16T03:01:11;19.10;;;13.20;;
74789;SDS011;63318;52.406;13.416;2023-04-16T03:03:39;20.10;;;12.60;;
74789;SDS011;63318;52.406;13.416;2023-04-16T03:06:08;18.40;;;13.10;;
74789;SDS011;63318;52.406;13.416;2023-04-16T03:08:36;20.20;;;13.70;;
74789;SDS011;63318;52.406;13.416;2023-04-16T03:11:05;19.10;;;13.20;;
74789;SDS011;63318;52.406;13.416;2023-04-16T03:13:33;20.90;;;13.20;;
74789;SDS011;63318;52.406;13.416;2023-04-16T03:16:02;20.30;;;13.60;;
74789;SDS011;63318;52.406;13.416;2023-04-16T03:18:31;19.70;;;13.80;;
74789;SDS011;63318;52.406;13.416;2023-04-16T03:20:59;21.50;;;14.00;;
74789;SDS011;63318;52.406;13.416;2023-04-16T03:23:28;20.40;;;14.10;;
74789;SDS011;63318;52.406;13.416;2023-04-16T03:25:56;20.40;;;13.00;;
74789;SDS011;63318;52.406;13.416;2023-04-16T03:28:25;21.90;;;13.40;;
74789;SDS011;63318;52.406;13.416;2023-04-16T03:30:53;19.30;;;12.80;;
74789;SDS011;63318;52.406;13.416;2023-04-16T03:33:22;19.30;;;12.50;;
74789;SDS011;63318;52.406;13.416;2023-04-16T03:35:56;19.80;;;12.10;;
74789;SDS011;63318;52.406;13.416;2023-04-16T03:38:25;21.10;;;12.80;;
74789;SDS011;63318;52.406;13.416;2023-04-16T03:40:54;19.20;;;12.50;;
74789;SDS011;63318;52.406;13.416;2023-04-16T03:43:22;20.30;;;13.80;;
74789;SDS011;63318;52.406;13.416;2023-04-16T03:45:51;22.20;;;14.70;;
74789;SDS011;63318;52.406;13.416;2023-04-16T03:48:19;21.60;;;14.20;;
74789;SDS011;63318;52.406;13.416;2023-04-16T03:50:49;22.50;;;14.30;;
74789;SDS011;63318;52.406;13.416;2023-04-16T03:53:17;22.70;;;15.00;;
74789;SDS011;63318;52.406;13.416;2023-04-16T03:55:47;25.20;;;15.70;;
74789;SDS011;63318;52.406;13.416;2023-04-16T03:58:18;25.30;;;15.30;;
74789;SDS011;63318;52.406;13.416;2023-04-16T04:00:47;26.60;;;15.90;;
74789;SDS011;63318;52.406;13.416;2023-04-16T04:03:20;27.40;;;16.30;;
74789;SDS011;63318;52.406;13.416;2023-04-16T04:05:49;27.50;;;15.60;;
74789;SDS011;63318;52.406;13.416;2023-04-16T04:08:18;26.50;;;16.20;;
74789;SDS011;63318;52.406;13.416;2023-04-16T04:10:47;26.20;;;16.70;;
74789;SDS011;63318;52.406;13.416;2023-04-16T04:13:15;23.90;;;15.30;;
74789;SDS011;63318;52.406;13.416;2023-04-16T04:15:44;25.50;;;16.10;;
74789;SDS011;63318;52.406;13.416;2023-04-16T04:18:13;24.90;;;15.70;;
74789;SDS011;63318;52.406;13.416;2023-04-16T04:20:41;28.20;;;16.50;;
74789;SDS011;63318;52.406;13.416;2023-04-16T04:23:10;26.00;;;16.20;;
74789;SDS011;63318;52.406;13.416;2023-04-16T04:25:38;29.30;;;16.80;;
74789;SDS011;63318;52.406;13.416;2023-04-16T04:28:07;26.80;;;15.70;;
74789;SDS011;63318;52.406;13.416;2023-04-16T04:30:36;27.20;;;16.10;;
74789;SDS011;63318;52.406;13.416;2023-04-16T04:33:04;28.90;;;15.80;;
74789;SDS011;63318;52.406;13.416;2023-04-16T04:35:33;28.50;;;16.40;;
74789;SDS011;63318;52.406;13.416;2023-04-16T04:38:01;27.30;;;15.30;;
74789;SDS011;63318;52.406;13.416;2023-04-16T04:40:31;25.30;;;15.90;;
74789;SDS011;63318;52.406;13.416;2023-04-16T04:42:59;26.60;;;15.70;;
74789;SDS011;63318;52.406;13.416;2023-04-16T04:45:27;28.70;;;16.80;;
74789;SDS011;63318;52.406;13.416;2023-04-16T04:47:56;26.20;;;15.90;;
74789;SDS011;63318;52.406;13.416;2023-04-16T04:50:24;27.40;;;16.50;;
74789;SDS011;63318;52.406;13.416;2023-04-16T04:52:53;24.90;;;15.90;;
74789;SDS011;63318;52.406;13.416;2023-04-16T04:55:21;26.70;;;15.80;;
74789;SDS011;63318;52.406;13.416;2023-04-16T04:57:50;27.00;;;16.00;;
74789;SDS011;63318;52.406;13.416;2023-04-16T05:00:19;26.70;;;16.30;;
74789;SDS011;63318;52.406;13.416;2023-04-16T05:02:47;31.10;;;16.00;;
74789;SDS011;63318;52.406;13.416;2023-04-16T05:05:16;26.50;;;15.00;;
74789;SDS011;63318;52.406;13.416;2023-04-16T05:07:44;28.70;;;16.20;;
74789;SDS011;63318;52.406;13.416;2023-04-16T05:10:13;23.90;;;15.50;;
74789;SDS011;63318;52.406;13.416;2023-04-16T05:12:42;24.40;;;15.10;;
74789;SDS011;63318;52.406;13.416;2023-04-16T05:15:11;23.80;;;14.60;;
74789;SDS011;63318;52.406;13.416;2023-04-16T05:17:40;28.10;;;16.50;;
74789;SDS011;63318;52.406;13.416;2023-04-16T05:20:09;24.70;;;15.90;;
74789;SDS011;63318;52.406;13.416;2023-04-16T05:22:37;25.90;;;15.80;;
74789;SDS011;63318;52.406;13.416;2023-04-16T05:25:06;26.60;;;16.10;;
74789;SDS011;63318;52.406;13.416;2023-04-16T05:27:35;27.40;;;16.20;;
74789;SDS011;63318;52.406;13.416;2023-04-16T05:30:06;25.10;;;14.90;;
74789;SDS011;63318;52.406;13.416;2023-04-16T05:32:37;25.60;;;14.80;;
74789;SDS011;63318;52.406;13.416;2023-04-16T05:35:08;21.70;;;13.40;;
74789;SDS011;63318;52.406;13.416;2023-04-16T05:37:37;25.30;;;14.20;;
74789;SDS011;63318;52.406;13.416;2023-04-16T05:40:06;23.40;;;15.00;;
74789;SDS011;63318;52.406;13.416;2023-04-16T05:42:37;26.50;;;14.90;;
74789;SDS011;63318;52.406;13.416;2023-04-16T05:45:07;24.00;;;14.70;;
74789;SDS011;63318;52.406;13.416;2023-04-16T05:47:37;25.40;;;14.00;;
74789;SDS011;63318;52.406;13.416;2023-04-16T05:50:06;23.20;;;14.10;;
74789;SDS011;63318;52.406;13.416;2023-04-16T05:52:35;25.40;;;14.10;;
74789;SDS011;63318;52.406;13.416;2023-04-16T05:55:07;25.20;;;15.00;;
74789;SDS011;63318;52.406;13.416;2023-04-16T05:57:38;24.80;;;14.30;;
74789;SDS011;63318;52.406;13.416;2023-04-16T06:00:07;24.50;;;13.50;;
74789;SDS011;63318;52.406;13.416;2023-04-16T06:02:36;22.90;;;13.80;;
74789;SDS011;63318;52.406;13.416;2023-04-16T06:05:05;25.60;;;14.50;;
74789;SDS011;63318;52.406;13.416;2023-04-16T06:07:34;28.10;;;14.40;;
74789;SDS011;63318;52.406;13.416;2023-04-16T06:10:03;26.60;;;14.30;;
74789;SDS011;63318;52.406;13.416;2023-04-16T06:12:32;23.20;;;13.60;;
74789;SDS011;63318;52.406;13.416;2023-04-16T06:15:01;23.60;;;13.80;;
74789;SDS011;63318;52.406;13.416;2023-04-16T06:17:32;25.50;;;14.60;;
74789;SDS011;63318;52.406;13.416;2023-04-16T06:20:01;24.00;;;14.00;;
74789;SDS011;63318;52.406;13.416;2023-04-16T06:22:30;21.80;;;12.70;;
74789;SDS011;63318;52.406;13.416;2023-04-16T06:25:00;25.10;;;13.80;;
74789;SDS011;63318;52.406;13.416;2023-04-16T06:27:29;23.80;;;13.20;;
74789;SDS011;63318;52.406;13.416;2023-04-16T06:29:58;25.00;;;12.90;;
74789;SDS011;63318;52.406;13.416;2023-04-16T06:32:26;21.10;;;11.70;;
74789;SDS011;63318;52.406;13.416;2023-04-16T06:34:54;21.40;;;12.90;;
74789;SDS011;63318;52.406;13.416;2023-04-16T06:37:24;25.00;;;13.50;;
74789;SDS011;63318;52.406;13.416;2023-04-16T06:39:52;24.70;;;14.20;;
74789;SDS011;63318;52.406;13.416;2023-04-16T06:42:21;24.10;;;13.50;;
74789;SDS011;63318;52.406;13.416;2023-04-16T06:44:50;23.20;;;13.00;;
74789;SDS011;63318;52.406;13.416;2023-04-16T06:47:19;22.90;;;12.40;;
74789;SDS011;63318;52.406;13.416;2023-04-16T06:49:47;26.50;;;12.30;;
74789;SDS011;63318;52.406;13.416;2023-04-16T06:52:16;22.60;;;13.90;;
74789;SDS011;63318;52.406;13.416;2023-04-16T06:54:46;26.20;;;13.80;;
74789;SDS011;63318;52.406;13.416;2023-04-16T06:57:15;24.40;;;14.10;;
74789;SDS011;63318;52.406;13.416;2023-04-16T06:59:43;20.90;;;12.50;;
74789;SDS011;63318;52.406;13.416;2023-04-16T07:02:12;21.60;;;12.10;;
74789;SDS011;63318;52.406;13.416;2023-04-16T07:04:41;18.70;;;11.50;;
74789;SDS011;63318;52.406;13.416;2023-04-16T07:07:10;23.70;;;13.10;;
74789;SDS011;63318;52.406;13.416;2023-04-16T07:09:39;20.10;;;12.10;;
74789;SDS011;63318;52.406;13.416;2023-04-16T07:12:08;22.10;;;12.70;;
74789;SDS011;63318;52.406;13.416;2023-04-16T07:14:38;20.90;;;12.10;;
74789;SDS011;63318;52.406;13.416;2023-04-16T07:17:06;22.80;;;11.30;;
74789;SDS011;63318;52.406;13.416;2023-04-16T07:19:35;19.80;;;11.80;;
74789;SDS011;63318;52.406;13.416;2023-04-16T07:22:04;20.20;;;13.00;;
74789;SDS011;63318;52.406;13.416;2023-04-16T07:24:32;22.50;;;13.00;;
74789;SDS011;63318;52.406;13.416;2023-04-16T07:27:01;21.80;;;12.00;;
74789;SDS011;63318;52.406;13.416;2023-04-16T07:29:30;20.00;;;11.70;;
74789;SDS011;63318;52.406;13.416;2023-04-16T07:31:59;19.60;;;12.00;;
74789;SDS011;63318;52.406;13.416;2023-04-16T07:34:28;19.30;;;12.00;;
74789;SDS011;63318;52.406;13.416;2023-04-16T07:36:57;18.80;;;10.70;;
74789;SDS011;63318;52.406;13.416;2023-04-16T07:39:25;21.40;;;13.10;;
74789;SDS011;63318;52.406;13.416;2023-04-16T07:41:53;21.80;;;12.70;;
74789;SDS011;63318;52.406;13.416;2023-04-16T07:44:23;23.50;;;12.80;;
74789;SDS011;63318;52.406;13.416;2023-04-16T07:46:51;18.60;;;11.20;;
74789;SDS011;63318;52.406;13.416;2023-04-16T07:49:23;20.50;;;12.20;;
74789;SDS011;63318;52.406;13.416;2023-04-16T07:51:52;20.20;;;11.70;;
74789;SDS011;63318;52.406;13.416;2023-04-16T07:54:21;20.50;;;11.20;;
74789;SDS011;63318;52.406;13.416;2023-04-16T07:56:49;20.30;;;11.90;;
74789;SDS011;63318;52.406;13.416;2023-04-16T07:59:19;17.20;;;11.60;;
74789;SDS011;63318;52.406;13.416;2023-04-16T08:01:47;16.90;;;11.20;;
74789;SDS011;63318;52.406;13.416;2023-04-16T08:04:17;17.60;;;10.60;;
74789;SDS011;63318;52.406;13.416;2023-04-16T08:06:47;18.60;;;10.50;;
74789;SDS011;63318;52.406;13.416;2023-04-16T08:09:15;16.10;;;10.00;;
74789;SDS011;63318;52.406;13.416;2023-04-16T08:11:45;16.10;;;10.30;;
74789;SDS011;63318;52.406;13.416;2023-04-16T08:14:14;16.10;;;9.10;;
74789;SDS011;63318;52.406;13.416;2023-04-16T08:16:43;18.40;;;9.80;;
74789;SDS011;63318;52.406;13.416;2023-04-16T08:19:11;16.90;;;9.90;;
74789;SDS011;63318;52.406;13.416;2023-04-16T08:21:40;18.60;;;10.40;;
74789;SDS011;63318;52.406;13.416;2023-04-16T08:24:09;18.10;;;10.20;;
74789;SDS011;63318;52.406;13.416;2023-04-16T08:26:39;15.30;;;9.30;;
74789;SDS011;63318;52.406;13.416;2023-04-16T08:29:08;16.20;;;9.90;;
74789;SDS011;63318;52.406;13.416;2023-04-16T08:31:37;17.20;;;9.40;;
74789;SDS011;63318;52.406;13.416;2023-04-16T08:34:06;17.00;;;10.40;;
74789;SDS011;63318;52.406;13.416;2023-04-16T08:36:36;15.30;;;9.90;;
74789;SDS011;63318;52.406;13.416;2023-04-16T08:39:06;17.60;;;9.30;;
74789;SDS011;63318;52.406;13.416;2023-04-16T08:41:35;15.00;;;9.30;;
74789;SDS011;63318;52.406;13.416;2023-04-16T08:44:07;15.80;;;9.90;;
74789;SDS011;63318;52.406;13.416;2023-04-16T08:49:07;17.40;;;9.50;;
74789;SDS011;63318;52.406;13.416;2023-04-16T08:51:44;19.00;;;11.00;;
74789;SDS011;63318;52.406;13.416;2023-04-16T08:54:19;17.30;;;10.00;;
74789;SDS011;63318;52.406;13.416;2023-04-16T08:56:56;15.60;;;9.70;;
74789;SDS011;63318;52.406;13.416;2023-04-16T08:59:25;17.00;;;9.50;;
74789;SDS011;63318;52.406;13.416;2023-04-16T09:01:56;15.50;;;9.90;;
74789;SDS011;63318;52.406;13.416;2023-04-16T09:04:27;16.50;;;9.90;;
74789;SDS011;63318;52.406;13.416;2023-04-16T09:06:57;16.50;;;9.30;;
74789;SDS011;63318;52.406;13.416;2023-04-16T09:09:28;14.70;;;9.40;;
74789;SDS011;63318;52.406;13.416;2023-04-16T09:11:58;17.30;;;10.10;;
74789;SDS011;63318;52.406;13.416;2023-04-16T09:14:27;15.80;;;9.50;;
74789;SDS011;63318;52.406;13.416;2023-04-16T09:16:56;14.10;;;8.80;;
74789;SDS011;63318;52.406;13.416;2023-04-16T09:19:25;15.30;;;9.10;;
74789;SDS011;63318;52.406;13.416;2023-04-16T09:21:53;13.60;;;8.50;;
74789;SDS011;63318;52.406;13.416;2023-04-16T09:24:22;13.10;;;9.00;;
74789;SDS011;63318;52.406;13.416;2023-04-16T09:26:52;19.50;;;9.30;;
74789;SDS011;63318;52.406;13.416;2023-04-16T09:29:35;13.30;;;9.10;;
74789;SDS011;63318;52.406;13.416;2023-04-16T09:32:06;16.20;;;10.10;;
74789;SDS011;63318;52.406;13.416;2023-04-16T09:37:22;16.50;;;9.10;;
74789;SDS011;63318;52.406;13.416;2023-04-16T09:39:54;14.40;;;8.80;;
74789;SDS011;63318;52.406;13.416;2023-04-16T09:42:24;17.20;;;8.90;;
74789;SDS011;63318;52.406;13.416;2023-04-16T09:44:54;15.70;;;9.30;;
74789;SDS011;63318;52.406;13.416;2023-04-16T09:47:24;14.30;;;9.00;;
74789;SDS011;63318;52.406;13.416;2023-04-16T09:50:04;15.40;;;8.70;;
74789;SDS011;63318;52.406;13.416;2023-04-16T09:52:35;15.50;;;9.20;;
74789;SDS011;63318;52.406;13.416;2023-04-16T09:55:05;14.60;;;9.60;;
74789;SDS011;63318;52.406;13.416;2023-04-16T09:57:35;16.60;;;11.20;;
74789;SDS011;63318;52.406;13.416;2023-04-16T10:00:04;17.00;;;9.50;;
74789;SDS011;63318;52.406;13.416;2023-04-16T10:02:35;15.00;;;9.60;;
74789;SDS011;63318;52.406;13.416;2023-04-16T10:05:06;12.90;;;9.00;;
74789;SDS011;63318;52.406;13.416;2023-04-16T10:07:36;14.50;;;8.90;;
74789;SDS011;63318;52.406;13.416;2023-04-16T10:10:05;15.80;;;9.90;;
74789;SDS011;63318;52.406;13.416;2023-04-16T10:12:37;15.00;;;9.30;;
74789;SDS011;63318;52.406;13.416;2023-04-16T10:15:07;15.20;;;9.70;;
74789;SDS011;63318;52.406;13.416;2023-04-16T10:17:36;14.20;;;9.00;;
74789;SDS011;63318;52.406;13.416;2023-04-16T10:20:06;15.00;;;10.10;;
74789;SDS011;63318;52.406;13.416;2023-04-16T10:22:36;13.30;;;9.40;;
74789;SDS011;63318;52.406;13.416;2023-04-16T10:25:07;14.30;;;9.50;;
74789;SDS011;63318;52.406;13.416;2023-04-16T10:27:35;14.60;;;9.40;;
74789;SDS011;63318;52.406;13.416;2023-04-16T10:30:07;14.30;;;9.20;;
74789;SDS011;63318;52.406;13.416;2023-04-16T10:32:39;13.60;;;8.40;;
74789;SDS011;63318;52.406;13.416;2023-04-16T10:35:08;12.10;;;8.40;;
74789;SDS011;63318;52.406;13.416;2023-04-16T10:37:45;12.30;;;8.10;;
74789;SDS011;63318;52.406;13.416;2023-04-16T10:40:24;13.20;;;8.80;;
74789;SDS011;63318;52.406;13.416;2023-04-16T10:42:54;13.40;;;9.40;;
74789;SDS011;63318;52.406;13.416;2023-04-16T10:45:29;17.10;;;10.30;;
74789;SDS011;63318;52.406;13.416;2023-04-16T10:48:05;15.10;;;9.40;;
74789;SDS011;63318;52.406;13.416;2023-04-16T10:50:34;16.90;;;10.20;;
74789;SDS011;63318;52.406;13.416;2023-04-16T10:53:21;16.70;;;9.70;;
74789;SDS011;63318;52.406;13.416;2023-04-16T10:58:37;16.20;;;10.40;;
74789;SDS011;63318;52.406;13.416;2023-04-16T11:01:11;16.80;;;11.20;;
74789;SDS011;63318;52.406;13.416;2023-04-16T11:03:45;15.60;;;10.20;;
74789;SDS011;63318;52.406;13.416;2023-04-16T11:06:14;20.50;;;10.90;;
74789;SDS011;63318;52.406;13.416;2023-04-16T11:08:49;18.60;;;11.40;;
74789;SDS011;63318;52.406;13.416;2023-04-16T11:11:19;17.20;;;11.20;;
74789;SDS011;63318;52.406;13.416;2023-04-16T11:13:48;20.30;;;11.90;;
74789;SDS011;63318;52.406;13.416;2023-04-16T11:16:20;17.20;;;11.40;;
74789;SDS011;63318;52.406;13.416;2023-04-16T11:18:50;18.50;;;11.80;;
74789;SDS011;63318;52.406;13.416;2023-04-16T11:21:20;16.50;;;10.90;;
74789;SDS011;63318;52.406;13.416;2023-04-16T11:23:50;14.50;;;9.90;;
74789;SDS011;63318;52.406;13.416;2023-04-16T11:26:23;20.80;;;11.40;;
74789;SDS011;63318;52.406;13.416;2023-04-16T11:28:53;18.80;;;12.00;;
74789;SDS011;63318;52.406;13.416;2023-04-16T11:31:23;20.10;;;12.20;;
74789;SDS011;63318;52.406;13.416;2023-04-16T11:33:52;18.20;;;11.70;;
74789;SDS011;63318;52.406;13.416;2023-04-16T11:36:23;21.10;;;12.40;;
74789;SDS011;63318;52.406;13.416;2023-04-16T11:38:59;18.10;;;11.60;;
74789;SDS011;63318;52.406;13.416;2023-04-16T11:41:29;18.70;;;12.30;;
74789;SDS011;63318;52.406;13.416;2023-04-16T11:43:57;20.70;;;13.20;;
74789;SDS011;63318;52.406;13.416;2023-04-16T11:46:37;18.40;;;12.30;;
74789;SDS011;63318;52.406;13.416;2023-04-16T11:49:06;18.30;;;11.20;;
74789;SDS011;63318;52.406;13.416;2023-04-16T11:51:39;17.20;;;11.80;;
74789;SDS011;63318;52.406;13.416;2023-04-16T11:54:08;21.20;;;13.10;;
74789;SDS011;63318;52.406;13.416;2023-04-16T11:56:45;20.30;;;12.30;;
74789;SDS011;63318;52.406;13.416;2023-04-16T11:59:15;18.30;;;12.10;;
74789;SDS011;63318;52.406;13.416;2023-04-16T12:01:46;15.80;;;10.20;;
74789;SDS011;63318;52.406;13.416;2023-04-16T12:04:17;19.20;;;11.20;;
74789;SDS011;63318;52.406;13.416;2023-04-16T12:09:36;19.10;;;11.30;;
74789;SDS011;63318;52.406;13.416;2023-04-16T12:12:06;15.80;;;10.80;;
74789;SDS011;63318;52.406;13.416;2023-04-16T12:14:52;17.00;;;11.60;;
74789;SDS011;63318;52.406;13.416;2023-04-16T12:17:25;17.30;;;11.20;;
74789;SDS011;63318;52.406;13.416;2023-04-16T12:19:56;18.00;;;12.60;;
74789;SDS011;63318;52.406;13.416;2023-04-16T12:22:27;16.10;;;11.40;;
74789;SDS011;63318;52.406;13.416;2023-04-16T12:24:58;15.40;;;10.80;;
74789;SDS011;63318;52.406;13.416;2023-04-16T12:27:41;15.30;;;10.70;;
74789;SDS011;63318;52.406;13.416;2023-04-16T12:30:11;17.00;;;11.70;;
74789;SDS011;63318;52.406;13.416;2023-04-16T12:32:40;14.30;;;10.60;;
74789;SDS011;63318;52.406;13.416;2023-04-16T12:35:11;13.70;;;10.60;;
74789;SDS011;63318;52.406;13.416;2023-04-16T12:37:54;14.50;;;10.50;;
74789;SDS011;63318;52.406;13.416;2023-04-16T12:40:23;15.80;;;10.70;;
74789;SDS011;63318;52.406;13.416;2023-04-16T12:42:51;14.80;;;10.80;;
74789;SDS011;63318;52.406;13.416;2023-04-16T12:45:20;16.30;;;11.60;;
74789;SDS011;63318;52.406;13.416;2023-04-16T12:47:50;14.50;;;10.80;;
74789;SDS011;63318;52.406;13.416;2023-04-16T12:50:21;13.50;;;9.90;;
74789;SDS011;63318;52.406;13.416;2023-04-16T12:52:50;15.00;;;10.30;;
74789;SDS011;63318;52.406;13.416;2023-04-16T12:55:19;15.80;;;10.40;;
74789;SDS011;63318;52.406;13.416;2023-04-16T12:57:51;14.90;;;10.50;;
74789;SDS011;63318;52.406;13.416;2023-04-16T13:00:20;15.20;;;10.80;;
74789;SDS011;63318;52.406;13.416;2023-04-16T13:02:49;15.90;;;10.30;;
74789;SDS011;63318;52.406;13.416;2023-04-16T13:05:19;15.50;;;11.40;;
74789;SDS011;63318;52.406;13.416;2023-04-16T13:07:48;13.40;;;10.80;;
74789;SDS011;63318;52.406;13.416;2023-04-16T13:10:19;16.10;;;10.30;;
74789;SDS011;63318;52.406;13.416;2023-04-16T13:12:50;14.10;;;10.00;;
74789;SDS011;63318;52.406;13.416;2023-04-16T13:15:19;15.10;;;10.10;;
74789;SDS011;63318;52.406;13.416;2023-04-16T13:17:48;14.30;;;9.80;;
74789;SDS011;63318;52.406;13.416;2023-04-16T13:20:16;14.20;;;9.10;;
74789;SDS011;63318;52.406;13.416;2023-04-16T13:22:45;13.70;;;10.50;;
74789;SDS011;63318;52.406;13.416;2023-04-16T13:25:14;16.20;;;10.70;;
74789;SDS011;63318;52.406;13.416;2023-04-16T13:27:44;13.50;;;8.60;;
74789;SDS011;63318;52.406;13.416;2023-04-16T13:30:14;15.80;;;9.20;;
74789;SDS011;63318;52.406;13.416;2023-04-16T13:32:42;12.70;;;8.30;;
74789;SDS011;63318;52.406;13.416;2023-04-16T13:35:13;13.00;;;8.70;;
74789;SDS011;63318;52.406;13.416;2023-04-16T13:37:42;12.30;;;7.90;;
74789;SDS011;63318;52.406;13.416;2023-04-16T13:40:11;12.50;;;8.60;;
74789;SDS011;63318;52.406;13.416;2023-04-16T13:42:40;10.30;;;7.90;;
74789;SDS011;63318;52.406;13.416;2023-04-16T13:45:08;12.20;;;7.40;;
74789;SDS011;63318;52.406;13.416;2023-04-16T13:47:38;11.60;;;7.70;;
74789;SDS011;63318;52.406;13.416;2023-04-16T13:50:08;11.90;;;7.80;;
74789;SDS011;63318;52.406;13.416;2023-04-16T13:52:37;11.60;;;7.50;;
74789;SDS011;63318;52.406;13.416;2023-04-16T13:55:05;12.80;;;7.70;;
74789;SDS011;63318;52.406;13.416;2023-04-16T13:57:34;11.20;;;8.10;;
74789;SDS011;63318;52.406;13.416;2023-04-16T14:00:03;13.50;;;8.20;;
74789;SDS011;63318;52.406;13.416;2023-04-16T14:02:34;12.10;;;7.70;;
74789;SDS011;63318;52.406;13.416;2023-04-16T14:05:03;11.80;;;8.30;;
74789;SDS011;63318;52.406;13.416;2023-04-16T14:07:33;11.50;;;7.90;;
74789;SDS011;63318;52.406;13.416;2023-04-16T14:10:04;13.10;;;8.20;;
74789;SDS011;63318;52.406;13.416;2023-04-16T14:12:33;11.60;;;7.80;;
74789;SDS011;63318;52.406;13.416;2023-04-16T14:15:03;13.50;;;8.80;;
74789;SDS011;63318;52.406;13.416;2023-04-16T14:17:33;13.20;;;8.00;;
74789;SDS011;63318;52.406;13.416;2023-04-16T14:20:03;12.90;;;8.50;;
74789;SDS011;63318;52.406;13.416;2023-04-16T14:22:32;12.80;;;8.60;;
74789;SDS011;63318;52.406;13.416;2023-04-16T14:25:01;13.50;;;8.40;;
74789;SDS011;63318;52.406;13.416;2023-04-16T14:27:29;14.80;;;8.60;;
74789;SDS011;63318;52.406;13.416;2023-04-16T14:29:58;10.50;;;7.40;;
74789;SDS011;63318;52.406;13.416;2023-04-16T14:32:26;12.70;;;8.90;;
74789;SDS011;63318;52.406;13.416;2023-04-16T14:34:55;12.10;;;8.30;;